sensor_id;sensor_type;location;lat;lon;timestamp;P1;durP1;ratioP1;P2;durP2;ratioP2
19951;SDS011;10137;49.406;19.484;2023-12-29T00:02:19;11.63;;;7.33;;
19951;SDS011;10137;49.406;19.484;2023-12-29T00:04:47;11.07;;;6.90;;
19951;SDS011;10137;49.406;19.484;2023-12-29T00:07:15;13.60;;;6.53;;
19951;SDS011;10137;49.406;19.484;2023-12-29T00:09:41;9.03;;;6.13;;
19951;SDS011;10137;49.406;19.484;2023-12-29T00:12:08;10.00;;;6.20;;
19951;SDS011;10137;49.406;19.484;2023-12-29T00:14:36;12.30;;;6.40;;
19951;SDS011;10137;49.406;19.484;2023-12-29T00:17:04;12.10;;;6.50;;
19951;SDS011;10137;49.406;19.484;2023-12-29T00:19:34;11.17;;;6.30;;
19951;SDS011;10137;49.406;19.484;2023-12-29T00:22:03;9.17;;;5.87;;
19951;SDS011;10137;49.406;19.484;2023-12-29T00:24:30;12.20;;;6.27;;
19951;SDS011;10137;49.406;19.484;2023-12-29T00:26:57;10.17;;;6.20;;
19951;SDS011;10137;49.406;19.484;2023-12-29T00:29:24;13.10;;;6.30;;
19951;SDS011;10137;49.406;19.484;2023-12-29T00:31:57;9.67;;;5.90;;
19951;SDS011;10137;49.406;19.484;2023-12-29T00:34:23;9.43;;;5.30;;
19951;SDS011;10137;49.406;19.484;2023-12-29T00:36:51;11.70;;;5.67;;
19951;SDS011;10137;49.406;19.484;2023-12-29T00:39:19;8.07;;;5.37;;
19951;SDS011;10137;49.406;19.484;2023-12-29T00:41:53;15.27;;;5.37;;
19951;SDS011;10137;49.406;19.484;2023-12-29T00:44:20;10.37;;;5.70;;
19951;SDS011;10137;49.406;19.484;2023-12-29T00:46:47;6.77;;;4.60;;
19951;SDS011;10137;49.406;19.484;2023-12-29T00:49:14;8.50;;;5.07;;
19951;SDS011;10137;49.406;19.484;2023-12-29T00:51:41;9.87;;;5.20;;
19951;SDS011;10137;49.406;19.484;2023-12-29T00:54:08;9.57;;;5.43;;
19951;SDS011;10137;49.406;19.484;2023-12-29T00:56:36;10.27;;;5.37;;
19951;SDS011;10137;49.406;19.484;2023-12-29T00:59:03;7.43;;;5.17;;
19951;SDS011;10137;49.406;19.484;2023-12-29T01:01:32;7.47;;;5.07;;
19951;SDS011;10137;49.406;19.484;2023-12-29T01:04:00;10.53;;;4.73;;
19951;SDS011;10137;49.406;19.484;2023-12-29T01:06:27;7.97;;;4.67;;
19951;SDS011;10137;49.406;19.484;2023-12-29T01:08:53;8.23;;;5.10;;
19951;SDS011;10137;49.406;19.484;2023-12-29T01:11:21;10.70;;;5.17;;
19951;SDS011;10137;49.406;19.484;2023-12-29T01:13:49;9.67;;;5.53;;
19951;SDS011;10137;49.406;19.484;2023-12-29T01:16:16;7.63;;;4.90;;
19951;SDS011;10137;49.406;19.484;2023-12-29T01:18:42;8.23;;;5.33;;
19951;SDS011;10137;49.406;19.484;2023-12-29T01:21:09;8.67;;;4.97;;
19951;SDS011;10137;49.406;19.484;2023-12-29T01:23:36;7.40;;;4.87;;
19951;SDS011;10137;49.406;19.484;2023-12-29T01:26:03;12.10;;;6.03;;
19951;SDS011;10137;49.406;19.484;2023-12-29T01:28:30;11.23;;;5.67;;
19951;SDS011;10137;49.406;19.484;2023-12-29T01:30:58;11.73;;;6.00;;
19951;SDS011;10137;49.406;19.484;2023-12-29T01:33:25;10.40;;;5.97;;
19951;SDS011;10137;49.406;19.484;2023-12-29T01:35:52;6.83;;;4.83;;
19951;SDS011;10137;49.406;19.484;2023-12-29T01:38:18;6.87;;;4.80;;
19951;SDS011;10137;49.406;19.484;2023-12-29T01:40:45;9.83;;;5.10;;
19951;SDS011;10137;49.406;19.484;2023-12-29T01:43:13;8.20;;;5.00;;
19951;SDS011;10137;49.406;19.484;2023-12-29T01:45:39;8.37;;;4.87;;
19951;SDS011;10137;49.406;19.484;2023-12-29T01:48:08;11.20;;;5.03;;
19951;SDS011;10137;49.406;19.484;2023-12-29T01:50:35;8.40;;;5.23;;
19951;SDS011;10137;49.406;19.484;2023-12-29T01:53:02;7.53;;;5.57;;
19951;SDS011;10137;49.406;19.484;2023-12-29T01:55:31;8.83;;;6.03;;
19951;SDS011;10137;49.406;19.484;2023-12-29T01:57:58;8.33;;;5.23;;
19951;SDS011;10137;49.406;19.484;2023-12-29T02:00:25;8.20;;;4.97;;
19951;SDS011;10137;49.406;19.484;2023-12-29T02:02:52;12.87;;;5.30;;
19951;SDS011;10137;49.406;19.484;2023-12-29T02:05:21;7.30;;;4.87;;
19951;SDS011;10137;49.406;19.484;2023-12-29T02:07:51;8.50;;;5.13;;
19951;SDS011;10137;49.406;19.484;2023-12-29T02:10:19;8.43;;;5.23;;
19951;SDS011;10137;49.406;19.484;2023-12-29T02:12:46;8.43;;;5.03;;
19951;SDS011;10137;49.406;19.484;2023-12-29T02:15:14;8.77;;;5.33;;
19951;SDS011;10137;49.406;19.484;2023-12-29T02:17:43;8.17;;;4.97;;
19951;SDS011;10137;49.406;19.484;2023-12-29T02:20:13;8.27;;;4.63;;
19951;SDS011;10137;49.406;19.484;2023-12-29T02:22:42;10.43;;;5.50;;
19951;SDS011;10137;49.406;19.484;2023-12-29T02:25:10;10.20;;;5.00;;
19951;SDS011;10137;49.406;19.484;2023-12-29T02:27:41;7.90;;;4.70;;
19951;SDS011;10137;49.406;19.484;2023-12-29T02:30:15;8.00;;;4.67;;
19951;SDS011;10137;49.406;19.484;2023-12-29T02:32:47;7.33;;;4.43;;
19951;SDS011;10137;49.406;19.484;2023-12-29T02:35:17;7.87;;;4.23;;
19951;SDS011;10137;49.406;19.484;2023-12-29T02:37:46;11.03;;;5.50;;
19951;SDS011;10137;49.406;19.484;2023-12-29T02:40:15;8.37;;;4.60;;
19951;SDS011;10137;49.406;19.484;2023-12-29T02:42:45;8.07;;;4.43;;
19951;SDS011;10137;49.406;19.484;2023-12-29T02:45:13;6.60;;;4.60;;
19951;SDS011;10137;49.406;19.484;2023-12-29T02:47:40;7.43;;;4.43;;
19951;SDS011;10137;49.406;19.484;2023-12-29T02:50:08;7.17;;;4.40;;
19951;SDS011;10137;49.406;19.484;2023-12-29T02:52:35;5.73;;;3.87;;
19951;SDS011;10137;49.406;19.484;2023-12-29T02:55:02;7.60;;;4.60;;
19951;SDS011;10137;49.406;19.484;2023-12-29T02:57:31;7.83;;;5.53;;
19951;SDS011;10137;49.406;19.484;2023-12-29T02:59:58;7.37;;;4.50;;
19951;SDS011;10137;49.406;19.484;2023-12-29T03:02:25;6.50;;;4.20;;
19951;SDS011;10137;49.406;19.484;2023-12-29T03:04:52;6.57;;;4.50;;
19951;SDS011;10137;49.406;19.484;2023-12-29T03:07:19;6.83;;;4.20;;
19951;SDS011;10137;49.406;19.484;2023-12-29T03:09:45;7.73;;;4.50;;
19951;SDS011;10137;49.406;19.484;2023-12-29T03:12:12;7.57;;;4.40;;
19951;SDS011;10137;49.406;19.484;2023-12-29T03:14:40;8.33;;;4.30;;
19951;SDS011;10137;49.406;19.484;2023-12-29T03:17:07;8.10;;;4.53;;
19951;SDS011;10137;49.406;19.484;2023-12-29T03:19:34;5.67;;;3.63;;
19951;SDS011;10137;49.406;19.484;2023-12-29T03:22:01;8.67;;;4.13;;
19951;SDS011;10137;49.406;19.484;2023-12-29T03:24:28;6.83;;;3.73;;
19951;SDS011;10137;49.406;19.484;2023-12-29T03:26:56;7.57;;;4.27;;
19951;SDS011;10137;49.406;19.484;2023-12-29T03:29:23;9.40;;;4.50;;
19951;SDS011;10137;49.406;19.484;2023-12-29T03:31:51;6.80;;;4.40;;
19951;SDS011;10137;49.406;19.484;2023-12-29T03:34:18;7.93;;;4.53;;
19951;SDS011;10137;49.406;19.484;2023-12-29T03:36:45;6.27;;;3.97;;
19951;SDS011;10137;49.406;19.484;2023-12-29T03:39:12;6.17;;;4.30;;
19951;SDS011;10137;49.406;19.484;2023-12-29T03:41:39;8.53;;;4.00;;
19951;SDS011;10137;49.406;19.484;2023-12-29T03:44:05;6.87;;;4.40;;
19951;SDS011;10137;49.406;19.484;2023-12-29T03:46:32;7.17;;;4.27;;
19951;SDS011;10137;49.406;19.484;2023-12-29T03:49:01;5.67;;;3.67;;
19951;SDS011;10137;49.406;19.484;2023-12-29T03:51:28;4.80;;;3.50;;
19951;SDS011;10137;49.406;19.484;2023-12-29T03:53:55;5.67;;;3.90;;
19951;SDS011;10137;49.406;19.484;2023-12-29T03:56:23;7.20;;;3.80;;
19951;SDS011;10137;49.406;19.484;2023-12-29T03:58:50;6.10;;;3.83;;
19951;SDS011;10137;49.406;19.484;2023-12-29T04:01:17;6.83;;;3.60;;
19951;SDS011;10137;49.406;19.484;2023-12-29T04:03:45;7.07;;;3.80;;
19951;SDS011;10137;49.406;19.484;2023-12-29T04:06:13;6.20;;;4.03;;
19951;SDS011;10137;49.406;19.484;2023-12-29T04:08:40;5.93;;;3.53;;
19951;SDS011;10137;49.406;19.484;2023-12-29T04:11:07;5.77;;;3.60;;
19951;SDS011;10137;49.406;19.484;2023-12-29T04:13:34;6.53;;;3.63;;
19951;SDS011;10137;49.406;19.484;2023-12-29T04:16:00;7.10;;;3.70;;
19951;SDS011;10137;49.406;19.484;2023-12-29T04:18:28;5.47;;;3.80;;
19951;SDS011;10137;49.406;19.484;2023-12-29T04:20:55;6.17;;;3.53;;
19951;SDS011;10137;49.406;19.484;2023-12-29T04:23:23;6.27;;;4.30;;
19951;SDS011;10137;49.406;19.484;2023-12-29T04:25:50;8.20;;;5.03;;
19951;SDS011;10137;49.406;19.484;2023-12-29T04:28:17;8.63;;;5.20;;
19951;SDS011;10137;49.406;19.484;2023-12-29T04:30:44;8.30;;;4.90;;
19951;SDS011;10137;49.406;19.484;2023-12-29T04:33:11;13.97;;;6.17;;
19951;SDS011;10137;49.406;19.484;2023-12-29T04:35:38;9.23;;;4.90;;
19951;SDS011;10137;49.406;19.484;2023-12-29T04:38:04;8.13;;;4.90;;
19951;SDS011;10137;49.406;19.484;2023-12-29T04:40:33;10.53;;;6.17;;
19951;SDS011;10137;49.406;19.484;2023-12-29T04:43:00;10.63;;;7.40;;
19951;SDS011;10137;49.406;19.484;2023-12-29T04:45:27;10.60;;;4.37;;
19951;SDS011;10137;49.406;19.484;2023-12-29T04:47:54;5.83;;;4.10;;
19951;SDS011;10137;49.406;19.484;2023-12-29T04:50:20;6.37;;;4.13;;
19951;SDS011;10137;49.406;19.484;2023-12-29T04:52:47;12.37;;;5.40;;
19951;SDS011;10137;49.406;19.484;2023-12-29T04:55:15;29.80;;;14.73;;
19951;SDS011;10137;49.406;19.484;2023-12-29T04:57:43;21.90;;;11.20;;
19951;SDS011;10137;49.406;19.484;2023-12-29T05:00:10;53.80;;;24.73;;
19951;SDS011;10137;49.406;19.484;2023-12-29T05:02:38;51.00;;;24.47;;
19951;SDS011;10137;49.406;19.484;2023-12-29T05:05:05;26.83;;;14.77;;
19951;SDS011;10137;49.406;19.484;2023-12-29T05:07:32;12.13;;;6.67;;
19951;SDS011;10137;49.406;19.484;2023-12-29T05:09:59;7.83;;;4.40;;
19951;SDS011;10137;49.406;19.484;2023-12-29T05:12:25;6.73;;;4.33;;
19951;SDS011;10137;49.406;19.484;2023-12-29T05:14:54;7.97;;;4.93;;
19951;SDS011;10137;49.406;19.484;2023-12-29T05:17:20;6.27;;;4.27;;
19951;SDS011;10137;49.406;19.484;2023-12-29T05:19:47;5.33;;;3.60;;
19951;SDS011;10137;49.406;19.484;2023-12-29T05:22:14;6.93;;;3.80;;
19951;SDS011;10137;49.406;19.484;2023-12-29T05:24:42;7.67;;;3.93;;
19951;SDS011;10137;49.406;19.484;2023-12-29T05:27:10;6.03;;;3.40;;
19951;SDS011;10137;49.406;19.484;2023-12-29T05:29:37;4.97;;;3.57;;
19951;SDS011;10137;49.406;19.484;2023-12-29T05:32:05;7.17;;;3.77;;
19951;SDS011;10137;49.406;19.484;2023-12-29T05:34:33;7.90;;;4.07;;
19951;SDS011;10137;49.406;19.484;2023-12-29T05:37:00;8.93;;;5.10;;
19951;SDS011;10137;49.406;19.484;2023-12-29T05:39:27;5.87;;;3.50;;
19951;SDS011;10137;49.406;19.484;2023-12-29T05:41:54;6.70;;;3.27;;
19951;SDS011;10137;49.406;19.484;2023-12-29T05:44:21;5.57;;;3.50;;
19951;SDS011;10137;49.406;19.484;2023-12-29T05:46:48;6.93;;;4.00;;
19951;SDS011;10137;49.406;19.484;2023-12-29T05:49:17;6.17;;;4.43;;
19951;SDS011;10137;49.406;19.484;2023-12-29T05:51:44;10.13;;;5.03;;
19951;SDS011;10137;49.406;19.484;2023-12-29T05:54:11;8.03;;;4.50;;
19951;SDS011;10137;49.406;19.484;2023-12-29T05:56:38;6.63;;;3.87;;
19951;SDS011;10137;49.406;19.484;2023-12-29T05:59:05;4.83;;;3.50;;
19951;SDS011;10137;49.406;19.484;2023-12-29T06:01:32;6.83;;;4.13;;
19951;SDS011;10137;49.406;19.484;2023-12-29T06:03:58;7.00;;;3.83;;
19951;SDS011;10137;49.406;19.484;2023-12-29T06:06:27;5.03;;;3.63;;
19951;SDS011;10137;49.406;19.484;2023-12-29T06:08:54;5.23;;;3.73;;
19951;SDS011;10137;49.406;19.484;2023-12-29T06:11:21;5.43;;;3.70;;
19951;SDS011;10137;49.406;19.484;2023-12-29T06:13:48;6.30;;;3.60;;
19951;SDS011;10137;49.406;19.484;2023-12-29T06:16:18;6.67;;;3.80;;
19951;SDS011;10137;49.406;19.484;2023-12-29T06:18:45;5.20;;;3.53;;
19951;SDS011;10137;49.406;19.484;2023-12-29T06:21:12;5.17;;;3.30;;
19951;SDS011;10137;49.406;19.484;2023-12-29T06:23:41;4.77;;;3.17;;
19951;SDS011;10137;49.406;19.484;2023-12-29T06:26:13;7.07;;;4.23;;
19951;SDS011;10137;49.406;19.484;2023-12-29T06:28:41;5.67;;;3.60;;
19951;SDS011;10137;49.406;19.484;2023-12-29T06:31:08;6.67;;;3.60;;
19951;SDS011;10137;49.406;19.484;2023-12-29T06:33:35;7.63;;;3.60;;
19951;SDS011;10137;49.406;19.484;2023-12-29T06:36:02;7.73;;;3.90;;
19951;SDS011;10137;49.406;19.484;2023-12-29T06:38:29;6.57;;;3.90;;
19951;SDS011;10137;49.406;19.484;2023-12-29T06:41:00;6.07;;;3.90;;
19951;SDS011;10137;49.406;19.484;2023-12-29T06:43:27;6.57;;;3.80;;
19951;SDS011;10137;49.406;19.484;2023-12-29T06:45:54;7.43;;;3.77;;
19951;SDS011;10137;49.406;19.484;2023-12-29T06:48:21;6.97;;;3.23;;
19951;SDS011;10137;49.406;19.484;2023-12-29T06:50:48;5.03;;;3.43;;
19951;SDS011;10137;49.406;19.484;2023-12-29T06:53:15;6.40;;;3.87;;
19951;SDS011;10137;49.406;19.484;2023-12-29T06:55:42;6.40;;;4.53;;
19951;SDS011;10137;49.406;19.484;2023-12-29T06:58:10;6.23;;;3.70;;
19951;SDS011;10137;49.406;19.484;2023-12-29T07:00:37;4.67;;;3.07;;
19951;SDS011;10137;49.406;19.484;2023-12-29T07:03:04;5.37;;;3.90;;
19951;SDS011;10137;49.406;19.484;2023-12-29T07:05:31;4.60;;;3.00;;
19951;SDS011;10137;49.406;19.484;2023-12-29T07:07:58;6.43;;;3.30;;
19951;SDS011;10137;49.406;19.484;2023-12-29T07:10:25;4.53;;;2.70;;
19951;SDS011;10137;49.406;19.484;2023-12-29T07:12:52;5.20;;;3.37;;
19951;SDS011;10137;49.406;19.484;2023-12-29T07:15:20;6.13;;;3.67;;
19951;SDS011;10137;49.406;19.484;2023-12-29T07:17:48;5.47;;;3.30;;
19951;SDS011;10137;49.406;19.484;2023-12-29T07:20:15;6.80;;;3.50;;
19951;SDS011;10137;49.406;19.484;2023-12-29T07:22:42;5.60;;;3.40;;
19951;SDS011;10137;49.406;19.484;2023-12-29T07:25:09;6.37;;;3.23;;
19951;SDS011;10137;49.406;19.484;2023-12-29T07:27:36;6.50;;;4.53;;
19951;SDS011;10137;49.406;19.484;2023-12-29T07:30:03;6.50;;;4.20;;
19951;SDS011;10137;49.406;19.484;2023-12-29T07:32:32;6.90;;;4.30;;
19951;SDS011;10137;49.406;19.484;2023-12-29T07:34:59;8.80;;;4.60;;
19951;SDS011;10137;49.406;19.484;2023-12-29T07:37:26;9.77;;;4.70;;
19951;SDS011;10137;49.406;19.484;2023-12-29T07:39:53;9.90;;;5.03;;
19951;SDS011;10137;49.406;19.484;2023-12-29T07:42:20;14.73;;;6.40;;
19951;SDS011;10137;49.406;19.484;2023-12-29T07:44:47;9.77;;;5.60;;
19951;SDS011;10137;49.406;19.484;2023-12-29T07:47:14;17.10;;;8.43;;
19951;SDS011;10137;49.406;19.484;2023-12-29T07:49:42;15.97;;;9.07;;
19951;SDS011;10137;49.406;19.484;2023-12-29T07:52:10;14.10;;;7.10;;
19951;SDS011;10137;49.406;19.484;2023-12-29T07:54:37;13.27;;;6.47;;
19951;SDS011;10137;49.406;19.484;2023-12-29T07:57:04;15.00;;;7.07;;
19951;SDS011;10137;49.406;19.484;2023-12-29T07:59:30;7.80;;;4.63;;
19951;SDS011;10137;49.406;19.484;2023-12-29T08:01:57;12.80;;;5.77;;
19951;SDS011;10137;49.406;19.484;2023-12-29T08:04:24;8.80;;;5.20;;
19951;SDS011;10137;49.406;19.484;2023-12-29T08:06:52;8.53;;;5.20;;
19951;SDS011;10137;49.406;19.484;2023-12-29T08:09:19;9.70;;;5.17;;
19951;SDS011;10137;49.406;19.484;2023-12-29T08:11:46;10.13;;;5.83;;
19951;SDS011;10137;49.406;19.484;2023-12-29T08:14:13;8.93;;;4.70;;
19951;SDS011;10137;49.406;19.484;2023-12-29T08:16:40;7.77;;;4.77;;
19951;SDS011;10137;49.406;19.484;2023-12-29T08:19:07;9.03;;;5.03;;
19951;SDS011;10137;49.406;19.484;2023-12-29T08:21:35;7.70;;;4.50;;
19951;SDS011;10137;49.406;19.484;2023-12-29T08:24:03;6.23;;;3.80;;
19951;SDS011;10137;49.406;19.484;2023-12-29T08:26:31;8.67;;;4.40;;
19951;SDS011;10137;49.406;19.484;2023-12-29T08:28:58;7.00;;;4.40;;
19951;SDS011;10137;49.406;19.484;2023-12-29T08:31:25;5.80;;;3.77;;
19951;SDS011;10137;49.406;19.484;2023-12-29T08:33:54;4.50;;;3.30;;
19951;SDS011;10137;49.406;19.484;2023-12-29T08:36:21;4.87;;;3.33;;
19951;SDS011;10137;49.406;19.484;2023-12-29T08:38:48;5.73;;;3.37;;
19951;SDS011;10137;49.406;19.484;2023-12-29T08:41:16;5.50;;;3.40;;
19951;SDS011;10137;49.406;19.484;2023-12-29T08:43:43;6.03;;;3.63;;
19951;SDS011;10137;49.406;19.484;2023-12-29T08:46:11;4.87;;;3.27;;
19951;SDS011;10137;49.406;19.484;2023-12-29T08:48:37;5.37;;;3.43;;
19951;SDS011;10137;49.406;19.484;2023-12-29T08:51:04;4.50;;;3.17;;
19951;SDS011;10137;49.406;19.484;2023-12-29T08:53:31;3.70;;;2.73;;
19951;SDS011;10137;49.406;19.484;2023-12-29T08:56:00;5.00;;;3.20;;
19951;SDS011;10137;49.406;19.484;2023-12-29T08:58:29;4.90;;;3.10;;
19951;SDS011;10137;49.406;19.484;2023-12-29T09:00:56;4.87;;;3.10;;
19951;SDS011;10137;49.406;19.484;2023-12-29T09:03:23;4.47;;;3.07;;
19951;SDS011;10137;49.406;19.484;2023-12-29T09:05:49;10.13;;;4.30;;
19951;SDS011;10137;49.406;19.484;2023-12-29T09:08:16;4.83;;;3.30;;
19951;SDS011;10137;49.406;19.484;2023-12-29T09:10:43;4.87;;;3.50;;
19951;SDS011;10137;49.406;19.484;2023-12-29T09:13:10;7.57;;;4.57;;
19951;SDS011;10137;49.406;19.484;2023-12-29T09:15:38;5.00;;;3.53;;
19951;SDS011;10137;49.406;19.484;2023-12-29T09:18:05;7.53;;;3.23;;
19951;SDS011;10137;49.406;19.484;2023-12-29T09:20:32;4.57;;;3.13;;
19951;SDS011;10137;49.406;19.484;2023-12-29T09:22:59;4.30;;;3.10;;
19951;SDS011;10137;49.406;19.484;2023-12-29T09:25:28;6.10;;;3.47;;
19951;SDS011;10137;49.406;19.484;2023-12-29T09:27:55;7.23;;;4.00;;
19951;SDS011;10137;49.406;19.484;2023-12-29T09:30:22;5.80;;;3.90;;
19951;SDS011;10137;49.406;19.484;2023-12-29T09:32:50;7.97;;;3.97;;
19951;SDS011;10137;49.406;19.484;2023-12-29T09:35:17;9.30;;;4.20;;
19951;SDS011;10137;49.406;19.484;2023-12-29T09:37:45;9.10;;;5.00;;
19951;SDS011;10137;49.406;19.484;2023-12-29T09:40:13;7.53;;;4.60;;
19951;SDS011;10137;49.406;19.484;2023-12-29T09:42:41;8.03;;;4.37;;
19951;SDS011;10137;49.406;19.484;2023-12-29T09:45:11;7.40;;;4.67;;
19951;SDS011;10137;49.406;19.484;2023-12-29T09:47:40;5.47;;;4.23;;
19951;SDS011;10137;49.406;19.484;2023-12-29T09:50:10;6.43;;;4.63;;
19951;SDS011;10137;49.406;19.484;2023-12-29T09:52:38;6.67;;;3.70;;
19951;SDS011;10137;49.406;19.484;2023-12-29T09:55:07;7.40;;;4.07;;
19951;SDS011;10137;49.406;19.484;2023-12-29T09:57:36;5.23;;;3.77;;
19951;SDS011;10137;49.406;19.484;2023-12-29T10:00:07;7.73;;;3.60;;
19951;SDS011;10137;49.406;19.484;2023-12-29T10:02:41;6.50;;;4.10;;
19951;SDS011;10137;49.406;19.484;2023-12-29T10:05:20;6.07;;;3.80;;
19951;SDS011;10137;49.406;19.484;2023-12-29T10:07:52;5.80;;;3.40;;
19951;SDS011;10137;49.406;19.484;2023-12-29T10:10:19;6.63;;;2.87;;
19951;SDS011;10137;49.406;19.484;2023-12-29T10:12:48;8.03;;;2.60;;
19951;SDS011;10137;49.406;19.484;2023-12-29T10:15:17;6.90;;;3.60;;
19951;SDS011;10137;49.406;19.484;2023-12-29T10:17:51;4.60;;;2.90;;
19951;SDS011;10137;49.406;19.484;2023-12-29T10:20:28;3.33;;;2.40;;
19951;SDS011;10137;49.406;19.484;2023-12-29T10:23:05;4.60;;;2.40;;
19951;SDS011;10137;49.406;19.484;2023-12-29T10:25:38;6.90;;;3.20;;
19951;SDS011;10137;49.406;19.484;2023-12-29T10:28:06;4.50;;;2.90;;
19951;SDS011;10137;49.406;19.484;2023-12-29T10:30:33;4.43;;;2.80;;
19951;SDS011;10137;49.406;19.484;2023-12-29T10:33:00;5.37;;;3.23;;
19951;SDS011;10137;49.406;19.484;2023-12-29T10:35:29;5.13;;;3.00;;
19951;SDS011;10137;49.406;19.484;2023-12-29T10:38:06;6.40;;;2.80;;
19951;SDS011;10137;49.406;19.484;2023-12-29T10:40:35;5.93;;;2.80;;
19951;SDS011;10137;49.406;19.484;2023-12-29T10:43:02;4.10;;;2.07;;
19951;SDS011;10137;49.406;19.484;2023-12-29T10:45:32;5.60;;;2.17;;
19951;SDS011;10137;49.406;19.484;2023-12-29T10:47:59;5.00;;;2.43;;
19951;SDS011;10137;49.406;19.484;2023-12-29T10:50:27;4.97;;;3.27;;
19951;SDS011;10137;49.406;19.484;2023-12-29T10:53:03;5.93;;;3.97;;
19951;SDS011;10137;49.406;19.484;2023-12-29T10:55:37;3.67;;;2.47;;
19951;SDS011;10137;49.406;19.484;2023-12-29T10:58:04;5.60;;;2.70;;
19951;SDS011;10137;49.406;19.484;2023-12-29T11:00:32;3.70;;;2.57;;
19951;SDS011;10137;49.406;19.484;2023-12-29T11:02:59;3.07;;;2.10;;
19951;SDS011;10137;49.406;19.484;2023-12-29T11:05:26;5.83;;;2.77;;
19951;SDS011;10137;49.406;19.484;2023-12-29T11:07:54;7.50;;;3.30;;
19951;SDS011;10137;49.406;19.484;2023-12-29T11:10:25;4.97;;;2.90;;
19951;SDS011;10137;49.406;19.484;2023-12-29T11:12:52;6.00;;;3.17;;
19951;SDS011;10137;49.406;19.484;2023-12-29T11:15:20;3.90;;;2.80;;
19951;SDS011;10137;49.406;19.484;2023-12-29T11:17:49;4.30;;;2.60;;
19951;SDS011;10137;49.406;19.484;2023-12-29T11:20:17;5.20;;;3.03;;
19951;SDS011;10137;49.406;19.484;2023-12-29T11:22:46;9.10;;;4.83;;
19951;SDS011;10137;49.406;19.484;2023-12-29T11:25:13;6.07;;;2.73;;
19951;SDS011;10137;49.406;19.484;2023-12-29T11:27:42;4.83;;;3.17;;
19951;SDS011;10137;49.406;19.484;2023-12-29T11:30:10;7.87;;;3.80;;
19951;SDS011;10137;49.406;19.484;2023-12-29T11:32:41;6.30;;;3.53;;
19951;SDS011;10137;49.406;19.484;2023-12-29T11:35:16;6.60;;;3.63;;
19951;SDS011;10137;49.406;19.484;2023-12-29T11:38:08;8.10;;;3.27;;
19951;SDS011;10137;49.406;19.484;2023-12-29T11:40:48;7.47;;;3.43;;
19951;SDS011;10137;49.406;19.484;2023-12-29T11:43:22;9.33;;;3.50;;
19951;SDS011;10137;49.406;19.484;2023-12-29T11:45:49;5.97;;;3.40;;
19951;SDS011;10137;49.406;19.484;2023-12-29T11:48:40;7.63;;;3.40;;
19951;SDS011;10137;49.406;19.484;2023-12-29T11:51:29;7.70;;;4.30;;
19951;SDS011;10137;49.406;19.484;2023-12-29T11:54:00;4.37;;;3.03;;
19951;SDS011;10137;49.406;19.484;2023-12-29T11:56:31;5.40;;;3.20;;
19951;SDS011;10137;49.406;19.484;2023-12-29T11:59:13;5.90;;;2.50;;
19951;SDS011;10137;49.406;19.484;2023-12-29T12:01:46;3.50;;;2.10;;
19951;SDS011;10137;49.406;19.484;2023-12-29T12:07:05;5.80;;;2.33;;
19951;SDS011;10137;49.406;19.484;2023-12-29T12:09:32;8.13;;;3.20;;
19951;SDS011;10137;49.406;19.484;2023-12-29T12:12:00;6.57;;;2.80;;
19951;SDS011;10137;49.406;19.484;2023-12-29T12:14:48;6.90;;;2.80;;
19951;SDS011;10137;49.406;19.484;2023-12-29T12:17:28;3.37;;;2.03;;
19951;SDS011;10137;49.406;19.484;2023-12-29T12:19:57;6.10;;;2.33;;
19951;SDS011;10137;49.406;19.484;2023-12-29T12:22:24;5.40;;;2.30;;
19951;SDS011;10137;49.406;19.484;2023-12-29T12:24:56;2.97;;;2.07;;
19951;SDS011;10137;49.406;19.484;2023-12-29T12:27:24;4.93;;;2.50;;
19951;SDS011;10137;49.406;19.484;2023-12-29T12:29:54;2.60;;;2.00;;
19951;SDS011;10137;49.406;19.484;2023-12-29T12:32:22;3.30;;;2.13;;
19951;SDS011;10137;49.406;19.484;2023-12-29T12:34:50;5.93;;;1.90;;
19951;SDS011;10137;49.406;19.484;2023-12-29T12:37:20;13.10;;;2.70;;
19951;SDS011;10137;49.406;19.484;2023-12-29T12:39:47;5.03;;;2.10;;
19951;SDS011;10137;49.406;19.484;2023-12-29T12:42:15;2.90;;;2.00;;
19951;SDS011;10137;49.406;19.484;2023-12-29T12:44:47;4.23;;;2.47;;
19951;SDS011;10137;49.406;19.484;2023-12-29T12:47:24;5.23;;;3.07;;
19951;SDS011;10137;49.406;19.484;2023-12-29T12:49:53;2.97;;;1.90;;
19951;SDS011;10137;49.406;19.484;2023-12-29T12:52:20;6.17;;;2.47;;
19951;SDS011;10137;49.406;19.484;2023-12-29T12:54:48;3.07;;;2.20;;
19951;SDS011;10137;49.406;19.484;2023-12-29T12:57:18;4.47;;;2.80;;
19951;SDS011;10137;49.406;19.484;2023-12-29T12:59:46;4.23;;;2.50;;
19951;SDS011;10137;49.406;19.484;2023-12-29T13:02:13;4.47;;;2.40;;
19951;SDS011;10137;49.406;19.484;2023-12-29T13:04:42;2.90;;;1.90;;
19951;SDS011;10137;49.406;19.484;2023-12-29T13:07:12;3.23;;;2.13;;
19951;SDS011;10137;49.406;19.484;2023-12-29T13:09:41;4.13;;;2.43;;
19951;SDS011;10137;49.406;19.484;2023-12-29T13:12:11;5.67;;;2.90;;
19951;SDS011;10137;49.406;19.484;2023-12-29T13:14:39;5.37;;;3.13;;
19951;SDS011;10137;49.406;19.484;2023-12-29T13:17:06;4.33;;;2.40;;
19951;SDS011;10137;49.406;19.484;2023-12-29T13:19:35;5.10;;;3.30;;
19951;SDS011;10137;49.406;19.484;2023-12-29T13:22:07;4.67;;;3.13;;
19951;SDS011;10137;49.406;19.484;2023-12-29T13:24:38;3.90;;;2.97;;
19951;SDS011;10137;49.406;19.484;2023-12-29T13:27:09;4.93;;;3.03;;
19951;SDS011;10137;49.406;19.484;2023-12-29T13:29:37;4.17;;;2.50;;
19951;SDS011;10137;49.406;19.484;2023-12-29T13:32:05;3.33;;;2.60;;
19951;SDS011;10137;49.406;19.484;2023-12-29T13:34:46;3.80;;;2.57;;
19951;SDS011;10137;49.406;19.484;2023-12-29T13:37:22;3.77;;;2.57;;
19951;SDS011;10137;49.406;19.484;2023-12-29T13:39:57;3.90;;;2.70;;
19951;SDS011;10137;49.406;19.484;2023-12-29T13:42:30;5.27;;;2.83;;
19951;SDS011;10137;49.406;19.484;2023-12-29T13:45:00;3.70;;;2.40;;
19951;SDS011;10137;49.406;19.484;2023-12-29T13:47:29;4.03;;;2.60;;
19951;SDS011;10137;49.406;19.484;2023-12-29T13:49:58;4.00;;;2.60;;
19951;SDS011;10137;49.406;19.484;2023-12-29T13:52:26;6.63;;;2.47;;
19951;SDS011;10137;49.406;19.484;2023-12-29T13:54:53;4.70;;;2.57;;
19951;SDS011;10137;49.406;19.484;2023-12-29T13:57:29;3.70;;;2.53;;
19951;SDS011;10137;49.406;19.484;2023-12-29T14:00:12;4.60;;;2.80;;
19951;SDS011;10137;49.406;19.484;2023-12-29T14:02:43;4.37;;;2.83;;
19951;SDS011;10137;49.406;19.484;2023-12-29T14:05:14;4.27;;;2.90;;
19951;SDS011;10137;49.406;19.484;2023-12-29T14:07:46;5.80;;;3.93;;
19951;SDS011;10137;49.406;19.484;2023-12-29T14:10:18;8.00;;;4.37;;
19951;SDS011;10137;49.406;19.484;2023-12-29T14:12:46;5.60;;;3.77;;
19951;SDS011;10137;49.406;19.484;2023-12-29T14:15:13;4.53;;;2.93;;
19951;SDS011;10137;49.406;19.484;2023-12-29T14:17:39;3.83;;;2.50;;
19951;SDS011;10137;49.406;19.484;2023-12-29T14:20:07;5.53;;;2.87;;
19951;SDS011;10137;49.406;19.484;2023-12-29T14:22:34;4.77;;;3.80;;
19951;SDS011;10137;49.406;19.484;2023-12-29T14:25:03;6.93;;;3.90;;
19951;SDS011;10137;49.406;19.484;2023-12-29T14:27:33;6.43;;;4.03;;
19951;SDS011;10137;49.406;19.484;2023-12-29T14:30:00;6.07;;;4.20;;
19951;SDS011;10137;49.406;19.484;2023-12-29T14:32:27;6.70;;;4.10;;
19951;SDS011;10137;49.406;19.484;2023-12-29T14:34:56;7.83;;;3.73;;
19951;SDS011;10137;49.406;19.484;2023-12-29T14:37:23;8.47;;;4.33;;
19951;SDS011;10137;49.406;19.484;2023-12-29T14:39:51;7.93;;;4.23;;
19951;SDS011;10137;49.406;19.484;2023-12-29T14:42:19;7.07;;;4.07;;
19951;SDS011;10137;49.406;19.484;2023-12-29T14:44:46;7.20;;;4.03;;